Time;durP1;ratioP1;P1;durP2;ratioP2;P2;SDS_P1;SDS_P2;PMS_P1;PMS_P2;Temp;Humidity;BMP_temperature;BMP_pressure;BME280_temperature;BME280_humidity;BME280_pressure;Samples;Min_cycle;Max_cycle;Signal;HPM_P1;HPM_P2
2024/04/14 00:00:35;;;;;;;2.58;2.10;;;;;;;12.70;71.40;101468.44;5481738;26;20026;-72
2024/04/14 00:03:03;;;;;;;5.13;2.40;;;;;;;12.64;71.80;101471.09;5481677;26;20005;-73
2024/04/14 00:05:28;;;;;;;5.75;2.60;;;;;;;12.59;73.13;101474.38;5472435;26;20014;-73
2024/04/14 00:07:54;;;;;;;4.07;2.53;;;;;;;12.56;73.02;101467.50;5479542;26;20378;-73
2024/04/14 00:10:19;;;;;;;5.65;2.38;;;;;;;12.52;72.91;101471.63;5481634;26;20051;-73
2024/04/14 00:12:44;;;;;;;9.40;3.00;;;;;;;12.50;73.91;101471.00;5482967;26;20055;-73
2024/04/14 00:15:10;;;;;;;6.82;2.75;;;;;;;12.44;73.88;101485.25;5481184;26;20021;-73
2024/04/14 00:17:36;;;;;;;5.50;2.85;;;;;;;12.39;74.38;101477.75;5482152;26;20059;-74
2024/04/14 00:20:03;;;;;;;6.90;3.30;;;;;;;12.37;74.07;101474.41;5483504;26;20013;-74
2024/04/14 00:22:29;;;;;;;6.60;3.22;;;;;;;12.34;74.80;101471.25;5481250;26;20100;-74
2024/04/14 00:24:55;;;;;;;7.45;3.00;;;;;;;12.30;75.43;101467.28;5481569;26;20396;-74
2024/04/14 00:27:21;;;;;;;9.15;2.88;;;;;;;12.28;75.11;101468.28;5482068;26;20013;-73
2024/04/14 00:29:46;;;;;;;7.55;3.25;;;;;;;12.25;76.00;101474.06;5481641;26;20014;-73
2024/04/14 00:32:11;;;;;;;6.38;2.85;;;;;;;12.23;75.77;101469.91;5481563;26;20017;-73
2024/04/14 00:34:37;;;;;;;9.15;3.50;;;;;;;12.22;76.11;101471.75;5482410;26;20017;-73
2024/04/14 00:37:03;;;;;;;7.25;3.28;;;;;;;12.20;76.27;101467.59;5482193;26;20090;-74
2024/04/14 00:39:28;;;;;;;7.03;3.00;;;;;;;12.15;77.06;101465.47;5481226;26;20002;-74
2024/04/14 00:41:53;;;;;;;7.00;2.90;;;;;;;12.09;77.19;101463.53;5482164;26;20009;-74
2024/04/14 00:44:19;;;;;;;7.05;2.78;;;;;;;12.07;77.24;101460.19;5447259;26;20006;-74
2024/04/14 00:46:44;;;;;;;9.55;3.20;;;;;;;12.03;77.91;101461.59;5482455;26;20448;-75
2024/04/14 00:49:10;;;;;;;7.05;2.88;;;;;;;11.98;78.08;101471.13;5481108;26;19998;-74
2024/04/14 00:51:35;;;;;;;7.25;2.80;;;;;;;11.94;78.20;101469.78;5420665;26;19998;-73
2024/04/14 00:54:01;;;;;;;5.13;2.35;;;;;;;11.94;78.67;101464.41;5419300;26;20002;-73
2024/04/14 00:56:27;;;;;;;5.30;2.60;;;;;;;11.92;78.86;101466.44;5419000;26;20364;-73
2024/04/14 00:58:52;;;;;;;7.97;2.70;;;;;;;11.89;79.53;101474.91;5449682;26;20002;-73
2024/04/14 01:01:18;;;;;;;5.60;2.67;;;;;;;11.85;79.96;101473.63;5450431;26;20021;-72
2024/04/14 01:03:43;;;;;;;8.05;2.92;;;;;;;11.85;79.50;101481.72;5418806;26;19998;-73
2024/04/14 01:06:08;;;;;;;8.98;2.55;;;;;;;11.79;80.47;101488.72;5481115;26;20013;-72
2024/04/14 01:08:36;;;;;;;6.47;2.78;;;;;;;11.76;80.63;101490.97;5480836;26;20426;-74
2024/04/14 01:11:01;;;;;;;6.93;2.63;;;;;;;11.70;81.37;101483.59;5481224;26;20013;-74
2024/04/14 01:13:27;;;;;;;6.78;2.80;;;;;;;11.75;81.10;101487.41;5450178;26;20335;-74
2024/04/14 01:15:52;;;;;;;5.78;2.65;;;;;;;11.74;81.32;101496.53;5481231;26;20120;-74
2024/04/14 01:18:17;;;;;;;6.78;3.20;;;;;;;11.68;81.71;101491.91;5468384;26;20417;-74
2024/04/14 01:20:46;;;;;;;6.75;3.00;;;;;;;11.65;82.32;101498.50;5481692;26;20002;-73
2024/04/14 01:23:12;;;;;;;6.40;2.63;;;;;;;11.59;82.46;101501.97;5447876;26;20020;-73
2024/04/14 01:25:37;;;;;;;4.50;2.67;;;;;;;11.54;82.98;101512.47;5480741;26;20014;-74
2024/04/14 01:28:03;;;;;;;7.07;3.10;;;;;;;11.48;83.23;101497.88;5481715;26;20042;-73
2024/04/14 01:30:28;;;;;;;6.85;2.85;;;;;;;11.49;82.90;101509.47;5480779;26;20078;-73
2024/04/14 01:32:54;;;;;;;5.80;2.80;;;;;;;11.47;83.86;101506.16;5479604;26;20017;-73
2024/04/14 01:35:19;;;;;;;7.68;3.00;;;;;;;11.44;84.54;101507.34;5482080;26;20010;-73
2024/04/14 01:37:45;;;;;;;6.88;2.80;;;;;;;11.40;84.82;101511.44;5480444;26;20026;-74
2024/04/14 01:40:11;;;;;;;8.45;3.22;;;;;;;11.37;85.38;101507.25;5480389;26;20009;-73
2024/04/14 01:42:36;;;;;;;8.00;3.05;;;;;;;11.35;85.65;101509.31;5481737;26;19998;-74
2024/04/14 01:45:02;;;;;;;10.82;3.17;;;;;;;11.34;86.29;101510.31;5447701;26;20044;-74
2024/04/14 01:47:27;;;;;;;9.68;3.30;;;;;;;11.36;86.64;101510.97;5480095;26;20551;-74
2024/04/14 01:49:53;;;;;;;8.25;3.25;;;;;;;11.32;87.09;101520.44;5482237;26;20002;-74
2024/04/14 01:52:18;;;;;;;10.23;3.22;;;;;;;11.30;87.29;101511.72;5480207;26;20457;-74
2024/04/14 01:54:43;;;;;;;10.55;3.38;;;;;;;11.26;88.38;101532.00;5481344;26;20082;-73
2024/04/14 01:57:09;;;;;;;7.85;3.42;;;;;;;11.24;88.50;101528.63;5449726;26;20361;-74
2024/04/14 01:59:35;;;;;;;11.90;3.30;;;;;;;11.20;89.29;101522.78;5467141;26;20021;-73
2024/04/14 02:02:00;;;;;;;8.35;3.60;;;;;;;11.18;89.60;101524.84;5479818;26;20002;-74
2024/04/14 02:04:26;;;;;;;6.32;3.30;;;;;;;11.16;90.50;101526.03;5453569;26;20003;-74
2024/04/14 02:06:51;;;;;;;5.57;4.13;;;;;;;11.15;91.05;101522.50;5433611;26;20556;-73
2024/04/14 02:09:16;;;;;;;11.57;3.45;;;;;;;11.10;91.85;101532.16;5465511;26;20026;-74
2024/04/14 02:11:42;;;;;;;12.23;3.58;;;;;;;11.05;92.09;101528.16;5480590;26;19994;-74
2024/04/14 02:14:07;;;;;;;7.88;3.55;;;;;;;11.02;92.86;101531.22;5479667;26;20361;-74
2024/04/14 02:16:32;;;;;;;8.98;3.53;;;;;;;11.03;93.04;101535.59;5479738;26;19994;-73
2024/04/14 02:18:58;;;;;;;10.32;3.47;;;;;;;10.99;93.69;101539.66;5481107;26;19998;-73
2024/04/14 02:21:24;;;;;;;10.75;3.90;;;;;;;10.93;94.47;101537.72;5476426;26;20396;-74
2024/04/14 02:23:49;;;;;;;8.80;3.70;;;;;;;10.89;94.89;101548.00;5468012;26;20006;-73
2024/04/14 02:26:15;;;;;;;8.80;3.40;;;;;;;10.88;95.27;101545.50;5445265;26;19999;-74
2024/04/14 02:28:40;;;;;;;10.00;3.55;;;;;;;10.85;95.98;101540.47;5470612;26;20006;-74
2024/04/14 02:31:06;;;;;;;11.48;3.90;;;;;;;10.77;97.15;101554.84;5479987;26;20442;-74
2024/04/14 02:33:31;;;;;;;8.32;3.78;;;;;;;10.70;97.12;101548.47;5480357;26;19998;-74
2024/04/14 02:35:58;;;;;;;8.80;3.95;;;;;;;10.68;98.11;101545.97;5479440;26;20013;-73
2024/04/14 02:38:26;;;;;;;10.18;4.18;;;;;;;10.62;99.07;101546.69;5479184;26;19998;-74
2024/04/14 02:40:59;;;;;;;10.63;4.45;;;;;;;10.58;99.53;101546.22;5479898;26;20003;-74
2024/04/14 02:43:28;;;;;;;10.57;3.67;;;;;;;10.55;100.00;101551.16;5479583;26;20454;-74
2024/04/14 02:45:56;;;;;;;9.85;3.80;;;;;;;10.53;100.00;101563.94;5478758;26;20066;-74
2024/04/14 02:48:22;;;;;;;10.05;4.00;;;;;;;10.48;100.00;101563.63;5479675;26;20002;-73
2024/04/14 02:50:47;;;;;;;11.80;3.75;;;;;;;10.49;100.00;101573.38;5479775;26;20133;-73
2024/04/14 02:53:13;;;;;;;8.55;3.50;;;;;;;10.46;100.00;101567.34;5479432;26;20005;-74
2024/04/14 02:55:38;;;;;;;8.70;3.90;;;;;;;10.54;100.00;101565.63;5478936;26;20026;-74
2024/04/14 02:58:04;;;;;;;9.27;3.95;;;;;;;10.51;100.00;101571.34;5479436;26;20015;-72
2024/04/14 03:00:30;;;;;;;9.70;3.85;;;;;;;10.50;100.00;101577.75;5477522;26;20017;-74
2024/04/14 03:02:55;;;;;;;9.50;3.90;;;;;;;10.48;100.00;101582.47;5478399;26;19999;-74
2024/04/14 03:05:24;;;;;;;10.25;4.13;;;;;;;10.48;100.00;101577.09;5479998;26;20002;-74
2024/04/14 03:07:50;;;;;;;13.88;4.15;;;;;;;10.46;100.00;101578.09;5478304;26;20002;-75
2024/04/14 03:10:15;;;;;;;9.25;4.20;;;;;;;10.46;100.00;101572.72;5468379;26;20043;-74
2024/04/14 03:12:41;;;;;;;11.57;4.38;;;;;;;10.42;100.00;101568.69;5478886;26;20002;-74
2024/04/14 03:15:06;;;;;;;10.25;3.97;;;;;;;10.38;100.00;101572.78;5469536;26;19998;-74
2024/04/14 03:17:32;;;;;;;10.65;4.72;;;;;;;10.32;100.00;101571.59;5467903;26;20103;-73
2024/04/14 03:19:57;;;;;;;8.60;3.95;;;;;;;10.27;100.00;101567.75;5477476;26;20078;-73
2024/04/14 03:22:22;;;;;;;9.20;4.03;;;;;;;10.20;100.00;101570.31;5472215;26;20006;-76
2024/04/14 03:24:48;;;;;;;11.40;4.20;;;;;;;10.12;100.00;101573.91;5481847;26;20458;-74
2024/04/14 03:27:14;;;;;;;7.75;4.28;;;;;;;10.02;100.00;101567.91;5483592;26;20051;-75
2024/04/14 03:29:39;;;;;;;12.82;4.82;;;;;;;9.94;100.00;101567.94;5482629;26;19998;-75
2024/04/14 03:32:05;;;;;;;11.98;4.93;;;;;;;9.82;100.00;101573.72;5470011;26;20006;-74
2024/04/14 03:34:31;;;;;;;9.65;4.70;;;;;;;9.71;100.00;101568.69;5455914;26;20002;-74
2024/04/14 03:36:56;;;;;;;11.60;5.10;;;;;;;9.61;100.00;101570.75;5445968;26;20002;-74
2024/04/14 03:39:22;;;;;;;9.10;4.30;;;;;;;9.52;100.00;101586.91;5446139;26;20007;-74
2024/04/14 03:41:47;;;;;;;10.15;4.53;;;;;;;9.45;100.00;101588.59;5447843;26;20114;-73
2024/04/14 03:44:12;;;;;;;9.98;4.40;;;;;;;9.36;100.00;101595.00;5448741;26;20083;-74
2024/04/14 03:46:38;;;;;;;17.23;6.07;;;;;;;9.38;100.00;101585.75;5482047;26;20475;-74
2024/04/14 03:49:03;;;;;;;16.23;6.72;;;;;;;9.33;100.00;101589.97;5471794;26;19990;-73
2024/04/14 03:51:29;;;;;;;13.68;6.10;;;;;;;9.29;100.00;101591.31;5481007;26;20012;-73
2024/04/14 03:53:54;;;;;;;9.18;5.20;;;;;;;9.30;100.00;101598.38;5482179;26;20450;-73
2024/04/14 03:56:19;;;;;;;9.18;4.88;;;;;;;9.30;100.00;101604.56;5483046;26;20038;-73
2024/04/14 03:58:45;;;;;;;9.07;3.92;;;;;;;9.22;100.00;101593.84;5481903;26;20434;-73
2024/04/14 04:01:10;;;;;;;9.45;3.53;;;;;;;9.20;100.00;101601.25;5482326;26;20030;-74
2024/04/14 04:03:36;;;;;;;8.75;2.72;;;;;;;9.09;100.00;101599.72;5483067;26;20477;-72
2024/04/14 04:06:03;;;;;;;5.57;2.55;;;;;;;9.09;100.00;101607.78;5481065;26;20031;-73
2024/04/14 04:08:30;;;;;;;7.60;2.80;;;;;;;9.05;100.00;101614.50;5481569;26;20091;-73
2024/04/14 04:11:02;;;;;;;5.43;2.60;;;;;;;9.04;100.00;101613.69;5471315;26;20484;-73
2024/04/14 04:13:34;;;;;;;6.88;2.30;;;;;;;9.05;100.00;101620.72;5480917;26;20010;-75
2024/04/14 04:16:03;;;;;;;3.85;2.13;;;;;;;9.08;100.00;101619.53;5481540;26;20002;-74
2024/04/14 04:18:28;;;;;;;9.63;2.40;;;;;;;9.10;100.00;101612.97;5482002;26;20430;-73
2024/04/14 04:20:59;;;;;;;6.78;2.67;;;;;;;9.12;100.00;101604.78;5481365;26;20009;-75
2024/04/14 04:23:26;;;;;;;7.47;2.80;;;;;;;9.09;100.00;101610.47;5467319;26;20077;-73
2024/04/14 04:25:51;;;;;;;7.07;2.95;;;;;;;9.06;100.00;101616.19;5447071;26;20013;-73
2024/04/14 04:28:17;;;;;;;7.30;2.65;;;;;;;9.02;100.00;101620.19;5444384;26;20030;-73
2024/04/14 04:30:42;;;;;;;6.43;2.40;;;;;;;8.98;100.00;101617.00;5444442;26;20013;-73
2024/04/14 04:33:07;;;;;;;7.88;3.08;;;;;;;8.96;100.00;101619.03;5474420;26;20004;-72
2024/04/14 04:35:33;;;;;;;8.48;4.07;;;;;;;8.99;100.00;101624.06;5480336;26;20494;-72
2024/04/14 04:37:58;;;;;;;15.82;8.02;;;;;;;8.98;100.00;101633.13;5479945;26;20444;-73
2024/04/14 04:40:27;;;;;;;20.90;10.43;;;;;;;9.01;100.00;101630.13;5481357;26;20009;-73
2024/04/14 04:42:52;;;;;;;15.48;6.18;;;;;;;9.06;100.00;101643.03;5481246;26;20012;-74
2024/04/14 04:45:18;;;;;;;11.90;5.15;;;;;;;9.10;100.00;101639.84;5481899;26;19998;-74
2024/04/14 04:47:44;;;;;;;8.35;3.42;;;;;;;9.15;100.00;101641.19;5480943;26;19998;-74
2024/04/14 04:50:09;;;;;;;6.03;2.53;;;;;;;9.20;100.00;101644.22;5481681;26;20071;-74
2024/04/14 04:52:35;;;;;;;8.60;2.72;;;;;;;9.18;100.00;101641.69;5480759;26;20002;-75
2024/04/14 04:55:01;;;;;;;5.38;2.17;;;;;;;9.23;100.00;101647.41;5481820;26;20033;-74
2024/04/14 04:57:26;;;;;;;4.88;2.10;;;;;;;9.23;100.00;101643.88;5480042;26;20013;-75
2024/04/14 04:59:54;;;;;;;10.05;2.20;;;;;;;9.29;100.00;101647.75;5481904;26;20426;-75
2024/04/14 05:02:19;;;;;;;9.30;2.50;;;;;;;9.31;100.00;101651.09;5482980;26;20055;-74
2024/04/14 05:04:45;;;;;;;5.63;1.70;;;;;;;9.33;100.00;101659.84;5492387;26;20002;-74
2024/04/14 05:07:16;;;;;;;5.43;1.90;;;;;;;9.35;100.00;101660.50;5502645;26;20010;-75
2024/04/14 05:09:42;;;;;;;5.72;1.83;;;;;;;9.37;100.00;101662.00;5503040;26;19998;-74
2024/04/14 05:12:10;;;;;;;5.80;1.73;;;;;;;9.36;100.00;101670.22;5502977;26;20056;-73
2024/04/14 05:14:36;;;;;;;7.32;2.25;;;;;;;9.36;100.00;101672.91;5488195;26;20067;-74
2024/04/14 05:17:01;;;;;;;5.32;1.70;;;;;;;9.39;100.00;101677.97;5482194;26;20006;-73
2024/04/14 05:19:27;;;;;;;8.40;2.00;;;;;;;9.39;100.00;101681.50;5484005;26;20426;-74
2024/04/14 05:21:52;;;;;;;6.65;2.03;;;;;;;9.34;100.00;101673.09;5481332;26;20330;-73
2024/04/14 05:24:17;;;;;;;9.50;1.80;;;;;;;9.40;100.00;101676.94;5481363;26;20006;-73
2024/04/14 05:26:43;;;;;;;9.60;2.45;;;;;;;9.39;100.00;101667.22;5461984;26;20913;-73
2024/04/14 05:29:08;;;;;;;7.20;1.70;;;;;;;9.39;100.00;101664.53;5467171;26;19998;-73
2024/04/14 05:31:34;;;;;;;5.95;1.77;;;;;;;9.39;100.00;101676.13;5459571;26;20096;-73
2024/04/14 05:33:59;;;;;;;10.18;1.60;;;;;;;9.44;100.00;101674.78;5463639;26;20009;-72
2024/04/14 05:36:27;;;;;;;8.57;2.03;;;;;;;9.43;100.00;101687.38;5468559;26;20022;-73
2024/04/14 05:38:52;;;;;;;6.43;1.80;;;;;;;9.45;100.00;101693.41;5476962;26;20002;-73
2024/04/14 05:41:18;;;;;;;6.13;2.10;;;;;;;9.51;99.79;101695.44;5480787;26;20013;-72
2024/04/14 05:43:46;;;;;;;13.63;4.20;;;;;;;9.56;99.82;101701.13;5477672;26;20077;-74
2024/04/14 05:46:12;;;;;;;15.25;4.47;;;;;;;9.60;99.01;101693.59;5479344;26;20349;-74
2024/04/14 05:48:37;;;;;;;10.65;3.63;;;;;;;9.59;99.06;101691.91;5481238;26;20074;-74
2024/04/14 05:51:02;;;;;;;7.82;2.65;;;;;;;9.74;98.87;101702.78;5471933;26;20335;-73
2024/04/14 05:53:28;;;;;;;8.02;1.92;;;;;;;9.75;97.88;101700.97;5448334;26;20393;-74
2024/04/14 05:55:53;;;;;;;5.90;1.60;;;;;;;9.82;97.82;101702.78;5459872;26;19994;-74
2024/04/14 05:58:19;;;;;;;5.28;1.73;;;;;;;9.86;96.68;101704.13;5478001;26;20009;-73
2024/04/14 06:00:44;;;;;;;6.80;1.60;;;;;;;9.98;96.53;101706.44;5459772;26;20003;-73
2024/04/14 06:03:09;;;;;;;7.75;1.70;;;;;;;10.04;96.37;101707.59;5445354;26;20006;-74
2024/04/14 06:05:35;;;;;;;8.82;2.20;;;;;;;10.10;96.09;101707.75;5468650;26;20030;-76
2024/04/14 06:08:00;;;;;;;7.55;1.70;;;;;;;10.16;95.60;101709.75;5477336;26;20050;-74
2024/04/14 06:10:26;;;;;;;8.50;2.53;;;;;;;10.29;96.19;101711.06;5480111;26;19999;-74
2024/04/14 06:12:51;;;;;;;5.40;2.00;;;;;;;10.44;94.77;101717.41;5476513;26;20002;-74
2024/04/14 06:15:17;;;;;;;6.90;1.90;;;;;;;10.43;94.81;101720.31;5479304;26;20017;-77
2024/04/14 06:17:42;;;;;;;7.93;2.13;;;;;;;10.56;94.60;101725.13;5481215;26;20074;-75
2024/04/14 06:20:11;;;;;;;11.00;2.10;;;;;;;10.71;92.06;101728.75;5471241;26;20010;-74
2024/04/14 06:22:36;;;;;;;5.68;1.70;;;;;;;11.01;91.09;101726.22;5475095;26;20010;-74
2024/04/14 06:25:01;;;;;;;9.73;1.95;;;;;;;11.10;90.58;101729.69;5468439;26;20026;-73
2024/04/14 06:27:29;;;;;;;8.10;1.80;;;;;;;11.23;89.32;101731.81;5460723;26;20475;-73
2024/04/14 06:29:55;;;;;;;6.88;1.65;;;;;;;11.26;88.94;101731.44;5416065;26;20002;-73
2024/04/14 06:32:20;;;;;;;7.72;1.80;;;;;;;11.25;89.17;101729.78;5459415;26;20009;-72
2024/04/14 06:34:48;;;;;;;8.27;2.25;;;;;;;11.29;87.79;101724.84;5452429;26;20046;-73
2024/04/14 06:37:14;;;;;;;12.48;2.13;;;;;;;11.35;86.58;101719.56;5476610;26;20482;-73
2024/04/14 06:39:40;;;;;;;10.63;2.28;;;;;;;11.39;88.03;101725.44;5478232;26;20013;-73
2024/04/14 06:42:05;;;;;;;9.23;1.88;;;;;;;11.35;87.17;101741.13;5476114;26;20002;-74
2024/04/14 06:44:31;;;;;;;9.18;2.10;;;;;;;11.16;87.59;101733.53;5474217;26;20078;-74
2024/04/14 06:46:57;;;;;;;7.25;1.90;;;;;;;11.18;87.02;101734.19;5458667;26;20038;-74
2024/04/14 06:49:25;;;;;;;11.32;2.35;;;;;;;11.16;87.62;101747.00;5473669;26;20070;-72
2024/04/14 06:51:53;;;;;;;9.77;2.13;;;;;;;11.33;87.93;101737.78;5475331;26;20384;-73
2024/04/14 06:54:18;;;;;;;8.93;1.95;;;;;;;11.34;87.63;101727.84;5458263;26;20456;-72
2024/04/14 06:56:46;;;;;;;6.25;1.60;;;;;;;11.31;85.71;101736.28;5463502;26;20002;-74
2024/04/14 06:59:12;;;;;;;10.27;1.80;;;;;;;11.52;86.40;101749.94;5476109;26;20009;-74
2024/04/14 07:01:37;;;;;;;7.72;1.67;;;;;;;11.74;84.15;101746.56;5478174;26;20426;-72
2024/04/14 07:04:02;;;;;;;8.07;1.90;;;;;;;11.77;84.02;101754.28;5479748;26;20005;-73
2024/04/14 07:06:28;;;;;;;8.88;1.90;;;;;;;11.64;84.59;101754.91;5478482;26;20092;-72
2024/04/14 07:08:53;;;;;;;6.72;1.90;;;;;;;11.77;84.58;101752.41;5477075;26;20030;-73
2024/04/14 07:11:19;;;;;;;6.97;1.67;;;;;;;11.82;84.38;101754.59;5479734;26;19994;-73
2024/04/14 07:13:44;;;;;;;13.25;2.38;;;;;;;11.90;82.98;101767.97;5473106;26;20038;-73
2024/04/14 07:16:10;;;;;;;11.77;1.95;;;;;;;12.00;81.67;101767.75;5480067;26;20008;-73
2024/04/14 07:18:38;;;;;;;12.13;2.78;;;;;;;11.98;81.66;101756.28;5478733;26;20066;-73
2024/04/14 07:21:03;;;;;;;10.32;2.10;;;;;;;12.09;81.31;101758.53;5479150;26;20034;-73
2024/04/14 07:23:31;;;;;;;10.27;2.20;;;;;;;12.20;80.50;101764.53;5447384;26;19994;-73
2024/04/14 07:25:58;;;;;;;11.98;1.83;;;;;;;12.01;81.04;101768.56;5480893;26;19994;-72
2024/04/14 07:28:23;;;;;;;7.60;1.65;;;;;;;11.83;81.21;101770.59;5469149;26;20002;-72
2024/04/14 07:30:49;;;;;;;6.25;2.10;;;;;;;11.68;82.25;101773.22;5478185;26;20051;-73
2024/04/14 07:33:15;;;;;;;11.30;2.45;;;;;;;11.74;81.34;101778.94;5481592;26;20051;-72
2024/04/14 07:35:41;;;;;;;6.25;1.95;;;;;;;11.70;83.19;101780.31;5447995;26;20021;-73
2024/04/14 07:38:06;;;;;;;7.93;2.15;;;;;;;11.96;81.64;101775.34;5458392;26;20517;-73
2024/04/14 07:40:32;;;;;;;8.25;2.13;;;;;;;12.38;80.45;101783.03;5452446;26;20055;-73
2024/04/14 07:42:57;;;;;;;9.60;2.70;;;;;;;12.71;77.80;101770.00;5435123;26;20002;-73
2024/04/14 07:45:25;;;;;;;12.55;2.80;;;;;;;13.10;75.56;101781.47;5442922;26;20010;-73
2024/04/14 07:47:50;;;;;;;10.90;3.25;;;;;;;13.66;74.05;101789.97;5433648;26;20002;-73
2024/04/14 07:50:16;;;;;;;11.55;2.70;;;;;;;14.05;71.32;101800.28;5460048;26;20040;-73
2024/04/14 07:52:41;;;;;;;11.48;2.90;;;;;;;14.25;70.70;101794.97;5478584;26;20002;-73
2024/04/14 07:55:07;;;;;;;9.43;2.70;;;;;;;14.54;69.19;101794.94;5448892;26;20438;-73
2024/04/14 07:57:32;;;;;;;11.23;3.10;;;;;;;13.97;68.98;101778.75;5469893;26;20025;-73
2024/04/14 07:59:58;;;;;;;13.45;3.17;;;;;;;13.75;69.51;101789.63;5481508;26;20017;-73
2024/04/14 08:02:32;;;;;;;8.95;2.10;;;;;;;14.09;69.60;101785.31;5482047;26;20058;-73
2024/04/14 08:04:57;;;;;;;9.07;2.33;;;;;;;13.85;69.70;101801.97;5479437;26;20033;-73
2024/04/14 08:07:24;;;;;;;9.90;2.30;;;;;;;14.03;69.72;101796.91;5469325;26;20002;-73
2024/04/14 08:09:49;;;;;;;9.35;2.35;;;;;;;14.31;65.36;101787.09;5478257;26;20002;-72
2024/04/14 08:12:14;;;;;;;8.07;2.70;;;;;;;14.24;65.99;101797.91;5460504;26;20018;-73
2024/04/14 08:14:40;;;;;;;12.30;2.63;;;;;;;14.49;65.37;101795.56;5478907;26;19994;-73
2024/04/14 08:17:05;;;;;;;8.90;1.80;;;;;;;14.77;62.97;101796.56;5480671;26;20465;-73
2024/04/14 08:19:32;;;;;;;7.43;1.88;;;;;;;15.01;59.31;101806.84;5479430;26;20013;-72
2024/04/14 08:21:57;;;;;;;9.95;2.05;;;;;;;14.98;59.90;101804.56;5480222;26;20034;-72
2024/04/14 08:24:22;;;;;;;9.18;1.90;;;;;;;15.04;59.14;101804.78;5480480;26;19998;-73
2024/04/14 08:26:48;;;;;;;9.75;1.85;;;;;;;14.52;60.36;101814.13;5478354;26;20293;-73
2024/04/14 08:29:13;;;;;;;7.13;1.92;;;;;;;14.33;59.47;101812.94;5478760;26;20005;-72
2024/04/14 08:31:39;;;;;;;8.77;1.90;;;;;;;13.75;62.14;101811.28;5469702;26;20009;-72
2024/04/14 08:34:04;;;;;;;5.18;1.80;;;;;;;14.31;61.35;101812.31;5477453;26;20046;-72
2024/04/14 08:36:30;;;;;;;8.57;1.90;;;;;;;14.33;61.58;101818.38;5479330;26;20026;-72
2024/04/14 08:38:58;;;;;;;10.65;2.00;;;;;;;14.89;61.12;101819.31;5469277;26;20497;-72
2024/04/14 08:41:24;;;;;;;6.40;1.67;;;;;;;14.70;60.04;101813.63;5477105;26;20002;-71
2024/04/14 08:43:51;;;;;;;5.68;1.73;;;;;;;14.61;59.89;101811.25;5470019;26;20029;-72
2024/04/14 08:46:17;;;;;;;8.48;1.88;;;;;;;14.55;58.89;101815.59;5438382;26;20073;-72
2024/04/14 08:48:43;;;;;;;5.55;1.58;;;;;;;14.62;57.49;101824.59;5416391;26;20336;-72
2024/04/14 08:51:09;;;;;;;8.85;1.75;;;;;;;14.67;55.80;101826.72;5447001;26;20006;-71
2024/04/14 08:53:34;;;;;;;7.68;1.67;;;;;;;15.26;54.64;101821.78;5480209;26;20011;-73
2024/04/14 08:56:00;;;;;;;8.65;1.40;;;;;;;16.12;51.07;101825.63;5446047;26;20002;-73
2024/04/14 08:58:26;;;;;;;6.18;1.60;;;;;;;16.06;49.87;101832.75;5478610;26;20021;-73
2024/04/14 09:00:56;;;;;;;7.40;1.50;;;;;;;15.67;50.60;101823.50;5418660;26;20022;-72
2024/04/14 09:03:22;;;;;;;7.60;1.70;;;;;;;14.94;52.50;101826.84;5417667;26;19998;-72
2024/04/14 09:05:47;;;;;;;6.22;1.80;;;;;;;14.98;50.89;101830.84;5446380;26;20088;-74
2024/04/14 09:08:13;;;;;;;7.00;1.48;;;;;;;14.90;52.64;101829.13;5445524;26;20439;-73
2024/04/14 09:10:38;;;;;;;7.18;1.88;;;;;;;15.70;51.15;101822.28;5468146;26;20006;-72
2024/04/14 09:13:05;;;;;;;5.47;2.25;;;;;;;16.74;47.85;101835.31;5476994;26;20510;-73
2024/04/14 09:15:36;;;;;;;6.18;1.63;;;;;;;16.26;48.04;101831.03;5477900;26;20002;-73
2024/04/14 09:18:02;;;;;;;4.65;1.40;;;;;;;15.37;49.61;101834.72;5448517;26;20002;-73
2024/04/14 09:20:27;;;;;;;5.97;1.42;;;;;;;15.69;48.76;101842.31;5478581;26;20026;-73
2024/04/14 09:22:52;;;;;;;5.07;1.48;;;;;;;15.75;48.11;101825.19;5478315;26;20009;-72
2024/04/14 09:25:18;;;;;;;5.88;1.73;;;;;;;15.33;49.58;101821.78;5479262;26;20491;-72
2024/04/14 09:27:43;;;;;;;5.15;1.40;;;;;;;15.72;48.81;101822.88;5408599;26;20311;-73
2024/04/14 09:30:27;;;;;;;5.18;1.80;;;;;;;15.64;49.14;101834.75;5452962;26;20026;-73
2024/04/14 09:32:56;;;;;;;5.47;1.60;;;;;;;15.61;49.07;101838.75;5445974;26;20315;-73
2024/04/14 09:35:31;;;;;;;5.95;1.55;;;;;;;15.83;48.45;101838.56;5406321;26;20002;-73
2024/04/14 09:37:56;;;;;;;4.32;1.58;;;;;;;15.44;48.82;101842.88;5449363;26;20370;-74
2024/04/14 09:40:22;;;;;;;7.75;1.70;;;;;;;15.62;49.46;101842.28;5478887;26;20531;-72
2024/04/14 09:42:48;;;;;;;6.53;1.73;;;;;;;16.06;47.29;101843.59;5477082;26;20002;-73
2024/04/14 09:45:13;;;;;;;6.38;1.73;;;;;;;16.39;46.63;101839.19;5478644;26;19999;-72
2024/04/14 09:47:43;;;;;;;6.10;1.70;;;;;;;17.08;44.51;101833.34;5415932;26;20006;-72
2024/04/14 09:50:08;;;;;;;7.00;2.00;;;;;;;17.47;43.69;101836.09;5445712;26;20013;-73
2024/04/14 09:52:34;;;;;;;7.18;2.05;;;;;;;17.03;43.58;101844.88;5479422;26;20457;-73
2024/04/14 09:54:59;;;;;;;4.35;1.70;;;;;;;16.70;44.23;101844.94;5478326;26;20038;-74
2024/04/14 09:57:25;;;;;;;6.70;1.60;;;;;;;16.03;44.58;101848.63;5476259;26;20079;-72
2024/04/14 09:59:52;;;;;;;6.35;1.80;;;;;;;15.93;45.50;101848.19;5479216;26;20009;-73
2024/04/14 10:02:47;;;;;;;5.70;1.70;;;;;;;16.72;45.28;101846.44;5446751;26;20331;-73
2024/04/14 10:05:12;;;;;;;4.13;1.65;;;;;;;17.51;42.78;101848.19;5445000;26;20014;-73
2024/04/14 10:07:38;;;;;;;7.75;1.88;;;;;;;18.21;41.71;101852.69;5445923;26;20074;-72
2024/04/14 10:10:06;;;;;;;5.53;1.70;;;;;;;17.60;41.47;101844.16;5387011;26;20089;-72
2024/04/14 10:12:32;;;;;;;4.60;1.70;;;;;;;17.65;40.80;101855.19;5440582;26;19999;-73
2024/04/14 10:15:01;;;;;;;6.07;1.63;;;;;;;17.80;40.29;101845.91;5410220;26;20059;-73
2024/04/14 10:17:28;;;;;;;5.15;1.70;;;;;;;17.56;37.53;101845.66;5410727;26;20010;-73
2024/04/14 10:19:59;;;;;;;4.30;1.60;;;;;;;17.96;37.69;101847.22;5462047;26;19994;-72
2024/04/14 10:22:38;;;;;;;4.13;1.60;;;;;;;18.54;36.89;101857.00;5475555;26;20002;-72
2024/04/14 10:25:04;;;;;;;5.18;1.60;;;;;;;17.55;38.89;101841.25;5466376;26;20126;-72
2024/04/14 10:27:40;;;;;;;7.93;1.80;;;;;;;17.33;39.29;101844.31;5475585;26;20026;-72
2024/04/14 10:30:21;;;;;;;3.53;1.42;;;;;;;17.55;38.44;101836.66;5446949;26;20427;-73
2024/04/14 10:33:04;;;;;;;5.57;1.63;;;;;;;17.67;37.65;101836.75;5480264;26;19998;-73
2024/04/14 10:35:29;;;;;;;5.63;1.50;;;;;;;17.11;37.49;101841.94;5448427;26;20032;-71
2024/04/14 10:37:55;;;;;;;6.72;1.48;;;;;;;17.66;37.28;101843.25;5482259;26;20002;-72
2024/04/14 10:40:21;;;;;;;2.83;1.30;;;;;;;18.92;36.06;101852.38;5468702;26;20133;-72
2024/04/14 10:42:47;;;;;;;4.80;1.50;;;;;;;20.02;34.15;101857.78;5479836;26;20029;-72
2024/04/14 10:45:12;;;;;;;5.45;1.58;;;;;;;19.05;34.24;101862.34;5482081;26;20426;-72
2024/04/14 10:47:39;;;;;;;5.53;1.60;;;;;;;18.25;36.27;101848.47;5479594;26;20422;-72
2024/04/14 10:50:05;;;;;;;5.70;1.75;;;;;;;18.54;34.93;101851.53;5480995;26;20025;-72
2024/04/14 10:52:33;;;;;;;6.72;1.90;;;;;;;18.28;36.02;101848.03;5449728;26;20009;-72
2024/04/14 10:54:58;;;;;;;6.53;1.65;;;;;;;18.91;35.56;101853.44;5445828;26;19998;-73
2024/04/14 10:57:24;;;;;;;5.75;1.50;;;;;;;18.69;35.45;101844.91;5480890;26;20009;-73
2024/04/14 10:59:49;;;;;;;4.07;1.58;;;;;;;19.91;34.83;101853.16;5481319;26;20415;-73
2024/04/14 11:02:14;;;;;;;4.85;1.67;;;;;;;21.43;32.83;101855.09;5480467;26;20009;-74
2024/04/14 11:04:40;;;;;;;7.80;1.70;;;;;;;20.30;33.43;101839.84;5480456;26;20013;-72
2024/04/14 11:07:05;;;;;;;4.10;1.88;;;;;;;19.48;35.20;101839.47;5482020;26;19998;-73
2024/04/14 11:09:31;;;;;;;9.57;2.00;;;;;;;18.79;36.47;101842.47;5448282;26;20299;-72
2024/04/14 11:11:59;;;;;;;6.80;1.80;;;;;;;18.59;36.63;101837.25;5418937;26;20006;-72
2024/04/14 11:14:25;;;;;;;7.38;2.03;;;;;;;17.98;37.18;101831.53;5418265;26;20009;-72
2024/04/14 11:16:50;;;;;;;5.40;1.70;;;;;;;18.21;37.70;101825.44;5432316;26;20006;-72
2024/04/14 11:19:16;;;;;;;5.45;1.50;;;;;;;18.17;37.23;101824.25;5479013;26;20018;-74